Etusivu
METAR-TAF:

METAR-TAF

Lentoasemat :

S.t James Municipal Airport

St. James, Minnesota, Yhdysvallat

Leveyspiiri: 43-59-11N, Pituuspiiri: 094-33-29W, korkeus merenpinnasta: 325 m

Tämänhetkinen sää

Tämä raportti tehtiin 15 minuuttia sitten, kello 13.15 UTC
Tuuli 4 kn etelästä/kaakosta
Lämpötila 17°C
Kosteus 82%
Ilmanpaine 1018 hPa
Näkyvyys: 16.1 km

METAR: KJYG 051315Z AUTO 16004KT 10SM 17/14 A3006 RMK AO2

Aika: 08:30 (13:30 UTC)


TAF: puuttuu

Säähavainnot ja -ennusteet yli 4000 lentoasemalta (METAR- ja TAF-raportit).

Käytössä olevat sääasemat on merkitty karttaan keltaisilla ja punaisilla pisteillä.

Aseta hiiri pisteen päälle nähdäksesi sääaseman nimen.

Klikkaa sitten nähdäksesi säähavainnot ja -ennusteet.

Kartan vaihtaminen: klikkaa mustalla rastilla varustettuja vihreitä pisteitä, niin voit zoomata sisään; viivalla varustettua vihreää pistettä, niin voit zoomata ulos tai vihreitä nuolia, niin pääset viereisille kartoille.


METAR-TAF: